Time;durP1;ratioP1;P1;durP2;ratioP2;P2;SDS_P1;SDS_P2;PMS_P1;PMS_P2;Temp;Humidity;BMP_temperature;BMP_pressure;BME280_temperature;BME280_humidity;BME280_pressure;Samples;Min_cycle;Max_cycle;Signal;HPM_P1;HPM_P2
2022/04/20 00:00:17;;;;;;;4.80;2.40;;;;;;;7.09;45.81;95232.66;4988271;28;20192;-82
2022/04/20 00:02:43;;;;;;;3.17;1.97;;;;;;;7.05;46.05;95229.53;4972215;28;20696;-82
2022/04/20 00:05:08;;;;;;;6.63;2.30;;;;;;;6.95;46.49;95236.44;4956010;28;20196;-82
2022/04/20 00:07:33;;;;;;;2.27;1.93;;;;;;;6.98;46.03;95225.88;4972766;28;20211;-82
2022/04/20 00:09:59;;;;;;;4.07;2.17;;;;;;;6.97;46.04;95228.56;4971847;28;20193;-82
2022/04/20 00:12:25;;;;;;;2.13;1.90;;;;;;;6.94;46.59;95223.66;4955697;28;20188;-82
2022/04/20 00:14:50;;;;;;;3.73;2.00;;;;;;;6.95;46.36;95220.94;4955302;28;20645;-81
2022/04/20 00:17:16;;;;;;;5.60;2.07;;;;;;;6.84;46.41;95228.81;4956510;28;20235;-83
2022/04/20 00:19:41;;;;;;;3.30;1.70;;;;;;;6.88;46.33;95219.03;4956003;28;20283;-81
2022/04/20 00:22:06;;;;;;;2.40;1.73;;;;;;;6.88;46.45;95222.41;4971753;28;20208;-82
2022/04/20 00:24:32;;;;;;;2.00;1.80;;;;;;;6.86;46.56;95223.50;5003837;28;20672;-82
2022/04/20 00:26:57;;;;;;;3.80;1.93;;;;;;;6.76;46.71;95220.91;4972080;28;20218;-81
2022/04/20 00:29:22;;;;;;;3.07;1.80;;;;;;;6.70;47.13;95227.41;5004478;28;20192;-81
2022/04/20 00:31:47;;;;;;;3.23;2.17;;;;;;;6.57;47.29;95216.50;5004121;28;20193;-81
2022/04/20 00:34:13;;;;;;;2.43;1.93;;;;;;;6.60;47.23;95226.56;4971589;28;20188;-80
2022/04/20 00:36:38;;;;;;;4.27;2.00;;;;;;;6.57;47.67;95221.69;4952893;29;20202;-82
2022/04/20 00:39:03;;;;;;;2.80;2.30;;;;;;;6.56;47.42;95214.06;4955655;28;20299;-81
2022/04/20 00:41:30;;;;;;;4.33;2.40;;;;;;;6.56;47.69;95219.22;4987435;28;20204;-82
2022/04/20 00:43:55;;;;;;;3.60;2.53;;;;;;;6.54;47.73;95216.78;4987943;28;20199;-81
2022/04/20 00:46:22;;;;;;;5.60;1.87;;;;;;;6.47;48.16;95221.66;4972841;28;20177;-81
2022/04/20 00:48:48;;;;;;;3.67;1.70;;;;;;;6.36;48.42;95219.16;4991325;28;20208;-81
2022/04/20 00:51:14;;;;;;;6.10;2.43;;;;;;;6.37;48.06;95215.63;4995468;28;20211;-82
2022/04/20 00:53:39;;;;;;;3.27;2.40;;;;;;;6.37;48.30;95207.09;4993349;28;20180;-81
2022/04/20 00:56:04;;;;;;;4.17;2.07;;;;;;;6.25;48.90;95214.06;4971820;28;20176;-82
2022/04/20 00:58:30;;;;;;;3.13;2.20;;;;;;;6.19;49.26;95215.44;5018521;28;20205;-82
2022/04/20 01:00:55;;;;;;;3.23;2.33;;;;;;;6.22;49.30;95209.19;4994126;28;20184;-83
2022/04/20 01:03:20;;;;;;;3.90;2.20;;;;;;;6.23;49.74;95208.25;4976994;28;20200;-83
2022/04/20 01:05:45;;;;;;;2.87;2.43;;;;;;;6.15;50.04;95205.50;4979920;28;20203;-83
2022/04/20 01:08:11;;;;;;;3.23;2.23;;;;;;;6.20;50.26;95205.94;5011647;28;20216;-82
2022/04/20 01:10:36;;;;;;;6.80;2.40;;;;;;;6.16;50.80;95207.94;4978536;28;20183;-82
2022/04/20 01:13:01;;;;;;;2.77;2.57;;;;;;;6.11;50.86;95198.97;4976190;28;20664;-82
2022/04/20 01:15:27;;;;;;;5.37;2.80;;;;;;;6.09;50.91;95203.41;4992766;28;20189;-82
2022/04/20 01:17:52;;;;;;;4.40;3.17;;;;;;;5.96;51.94;95207.03;4975730;28;20643;-82
2022/04/20 01:20:18;;;;;;;5.47;3.03;;;;;;;5.94;52.43;95201.19;4976262;28;20199;-81
2022/04/20 01:22:43;;;;;;;3.30;2.57;;;;;;;5.98;52.21;95204.31;4958740;28;20219;-82
2022/04/20 01:25:09;;;;;;;3.47;2.73;;;;;;;5.97;53.19;95202.69;4975606;28;20196;-81
2022/04/20 01:27:35;;;;;;;3.77;2.50;;;;;;;5.90;52.92;95196.38;4975121;28;20215;-81
2022/04/20 01:30:00;;;;;;;4.10;2.83;;;;;;;5.90;53.93;95197.22;4975428;28;20187;-80
2022/04/20 01:32:26;;;;;;;3.53;2.60;;;;;;;5.87;54.36;95199.22;4958113;28;20567;-81
2022/04/20 01:34:52;;;;;;;5.43;3.20;;;;;;;5.87;54.29;95206.94;4991212;28;20772;-81
2022/04/20 01:37:17;;;;;;;4.67;2.93;;;;;;;5.79;55.18;95210.16;4975039;28;20567;-81
2022/04/20 01:39:43;;;;;;;5.83;3.20;;;;;;;5.81;54.99;95210.84;4974826;28;20185;-81
2022/04/20 01:42:08;;;;;;;3.43;2.93;;;;;;;5.72;55.60;95213.34;4973590;28;20211;-81
2022/04/20 01:44:33;;;;;;;3.57;3.00;;;;;;;5.69;55.93;95211.84;4958777;28;20184;-80
2022/04/20 01:46:59;;;;;;;4.07;3.10;;;;;;;5.70;56.57;95210.91;4974266;28;20212;-80
2022/04/20 01:49:24;;;;;;;7.47;3.57;;;;;;;5.64;56.30;95212.22;4991405;28;20184;-80
2022/04/20 01:51:54;;;;;;;4.70;3.90;;;;;;;5.61;56.67;95207.34;4990115;28;20210;-81
2022/04/20 01:54:19;;;;;;;4.80;3.43;;;;;;;5.58;57.16;95202.44;5006068;28;20185;-81
2022/04/20 01:56:49;;;;;;;4.63;3.13;;;;;;;5.58;57.73;95199.06;4975856;28;20541;-82
2022/04/20 01:59:14;;;;;;;3.97;3.57;;;;;;;5.58;58.34;95210.16;4989816;28;20188;-80
2022/04/20 02:04:23;;;;;;;4.33;3.77;;;;;;;5.48;58.42;95214.44;5002044;28;20269;-81
2022/04/20 02:06:49;;;;;;;4.43;3.90;;;;;;;5.51;58.61;95211.59;5006695;28;20199;-81
2022/04/20 02:09:14;;;;;;;3.57;3.27;;;;;;;5.45;58.78;95209.50;5006648;28;20180;-82
2022/04/20 02:11:39;;;;;;;5.57;3.90;;;;;;;5.46;59.01;95211.16;4973129;28;20184;-81
2022/04/20 02:14:05;;;;;;;4.57;3.70;;;;;;;5.38;59.23;95206.63;4973933;28;20235;-82
2022/04/20 02:16:30;;;;;;;6.00;3.80;;;;;;;5.35;59.09;95206.88;4973812;28;20253;-80
2022/04/20 02:18:56;;;;;;;5.17;4.03;;;;;;;5.37;59.40;95202.41;4990119;28;20204;-81
2022/04/20 02:21:22;;;;;;;4.37;3.60;;;;;;;5.30;60.15;95205.59;4989217;28;20238;-81
2022/04/20 02:23:47;;;;;;;7.00;3.90;;;;;;;5.29;60.11;95207.34;5006161;28;20185;-82
2022/04/20 02:26:12;;;;;;;4.27;3.80;;;;;;;5.34;59.71;95207.00;4990023;28;20204;-82
2022/04/20 02:28:37;;;;;;;6.00;3.63;;;;;;;5.27;60.07;95209.25;4973191;28;20206;-81
2022/04/20 02:31:03;;;;;;;5.00;4.23;;;;;;;5.23;60.28;95207.88;4973880;28;20172;-82
2022/04/20 02:33:29;;;;;;;6.67;4.07;;;;;;;5.23;60.47;95207.88;4956773;28;20188;-81
2022/04/20 02:35:56;;;;;;;6.90;3.70;;;;;;;5.17;60.92;95198.06;4973844;28;20683;-82
2022/04/20 02:38:22;;;;;;;7.33;4.40;;;;;;;5.19;61.13;95206.47;4973646;28;20196;-81
2022/04/20 02:40:49;;;;;;;5.03;4.10;;;;;;;5.21;61.45;95198.63;4974078;28;20183;-82
2022/04/20 02:43:15;;;;;;;5.53;4.30;;;;;;;5.18;60.89;95209.16;4956933;28;20216;-81
2022/04/20 02:45:40;;;;;;;5.03;4.43;;;;;;;5.04;61.68;95211.09;4989087;28;20199;-81
2022/04/20 02:48:06;;;;;;;4.27;3.87;;;;;;;4.98;61.53;95208.19;4989440;28;20760;-81
2022/04/20 02:50:31;;;;;;;5.83;4.10;;;;;;;4.89;62.40;95212.31;4990153;28;20283;-80
2022/04/20 02:52:57;;;;;;;5.17;4.13;;;;;;;4.81;62.63;95206.94;5005168;28;20182;-81
2022/04/20 02:55:22;;;;;;;5.20;4.00;;;;;;;4.82;62.85;95206.81;4972994;28;20188;-80
2022/04/20 02:57:48;;;;;;;5.23;4.10;;;;;;;4.88;62.92;95212.44;4988740;28;20684;-80
2022/04/20 03:00:14;;;;;;;5.23;4.27;;;;;;;4.84;62.84;95211.84;5005664;28;20251;-81
2022/04/20 03:02:39;;;;;;;4.77;4.23;;;;;;;4.89;62.71;95209.75;4959158;28;20217;-80
2022/04/20 03:05:05;;;;;;;6.87;4.57;;;;;;;4.86;62.73;95211.72;4966887;28;20206;-80
2022/04/20 03:07:31;;;;;;;5.20;4.40;;;;;;;4.82;63.58;95214.53;4973019;28;20218;-79
2022/04/20 03:09:56;;;;;;;4.87;3.93;;;;;;;4.74;63.18;95206.59;4988334;28;20177;-79
2022/04/20 03:12:21;;;;;;;5.70;4.27;;;;;;;4.72;63.09;95208.50;4971087;28;20231;-80
2022/04/20 03:14:47;;;;;;;9.53;4.97;;;;;;;4.69;63.57;95206.16;4973357;28;20196;-80
2022/04/20 03:17:12;;;;;;;6.13;4.60;;;;;;;4.66;63.17;95208.13;4972835;28;20198;-80
2022/04/20 03:19:37;;;;;;;7.00;5.00;;;;;;;4.64;63.57;95210.03;4956415;28;20680;-80
2022/04/20 03:22:03;;;;;;;6.80;5.30;;;;;;;4.57;63.75;95214.00;4971885;28;20211;-80
2022/04/20 03:24:28;;;;;;;4.87;4.37;;;;;;;4.53;63.85;95216.00;4973193;28;20244;-81
2022/04/20 03:26:53;;;;;;;5.70;4.87;;;;;;;4.51;64.43;95223.03;4972056;28;20464;-81
2022/04/20 03:29:19;;;;;;;25.20;14.03;;;;;;;4.51;64.45;95220.47;5005325;28;20550;-81
2022/04/20 03:31:44;;;;;;;26.97;16.40;;;;;;;4.42;64.59;95224.56;4971786;28;20219;-81
2022/04/20 03:34:10;;;;;;;25.87;15.47;;;;;;;4.43;64.55;95226.19;4984719;28;20282;-81
2022/04/20 03:36:35;;;;;;;18.27;13.80;;;;;;;4.44;64.81;95227.00;4987093;28;20195;-81
2022/04/20 03:39:01;;;;;;;13.50;9.10;;;;;;;4.41;64.93;95222.91;4976153;28;20226;-81
2022/04/20 03:41:27;;;;;;;8.47;6.47;;;;;;;4.42;65.14;95226.31;4972741;28;20263;-82
2022/04/20 03:43:52;;;;;;;8.27;7.07;;;;;;;4.39;65.03;95224.78;4972376;28;20276;-81
2022/04/20 03:46:17;;;;;;;6.30;5.23;;;;;;;4.39;65.51;95223.94;4956611;28;20645;-81
2022/04/20 03:48:45;;;;;;;7.50;5.03;;;;;;;4.33;64.77;95225.25;4989016;28;20287;-82
2022/04/20 03:51:10;;;;;;;5.03;4.53;;;;;;;4.29;65.50;95230.75;4972435;28;20192;-81
2022/04/20 03:53:36;;;;;;;5.97;4.70;;;;;;;4.28;65.75;95231.69;4989105;28;20635;-83
2022/04/20 03:56:01;;;;;;;8.30;5.00;;;;;;;4.19;65.61;95225.47;4989207;28;20554;-83
2022/04/20 03:58:26;;;;;;;5.87;4.70;;;;;;;4.10;65.98;95227.00;4967346;28;20221;-82
2022/04/20 04:00:52;;;;;;;7.10;4.80;;;;;;;4.09;65.91;95232.25;4997244;28;20207;-82
2022/04/20 04:03:20;;;;;;;5.27;4.57;;;;;;;4.08;66.07;95221.16;4984670;28;20210;-83
2022/04/20 04:05:45;;;;;;;8.30;4.60;;;;;;;4.07;65.88;95223.84;4972285;28;20187;-82
2022/04/20 04:08:11;;;;;;;4.90;4.40;;;;;;;4.05;66.26;95218.00;4971214;28;20583;-81
2022/04/20 04:10:36;;;;;;;6.40;4.73;;;;;;;4.04;66.33;95216.34;4970322;28;20216;-82
2022/04/20 04:13:02;;;;;;;7.90;4.60;;;;;;;3.94;66.83;95222.19;4970266;28;20191;-81
2022/04/20 04:15:27;;;;;;;8.17;4.93;;;;;;;3.93;66.29;95217.16;5003643;28;20192;-82
2022/04/20 04:17:58;;;;;;;6.00;4.27;;;;;;;3.91;66.85;95217.28;4987120;28;20212;-82
2022/04/20 04:20:24;;;;;;;5.40;4.37;;;;;;;3.88;66.27;95220.06;4971830;28;20231;-83
2022/04/20 04:22:50;;;;;;;6.57;4.47;;;;;;;3.95;65.79;95217.88;4974016;28;20299;-81
2022/04/20 04:25:16;;;;;;;5.17;4.57;;;;;;;4.04;65.61;95214.59;5007573;28;20695;-82
2022/04/20 04:27:42;;;;;;;6.60;4.60;;;;;;;4.09;65.17;95214.28;5007321;28;20255;-81
2022/04/20 04:30:07;;;;;;;6.80;4.53;;;;;;;4.07;65.38;95216.97;4958988;28;20251;-81
2022/04/20 04:32:33;;;;;;;6.63;4.60;;;;;;;4.10;65.40;95216.72;4990470;28;20577;-82
2022/04/20 04:34:58;;;;;;;4.90;3.87;;;;;;;4.09;65.26;95220.22;4974364;28;20663;-81
2022/04/20 04:37:23;;;;;;;5.40;4.40;;;;;;;4.11;65.23;95212.41;4991154;28;20202;-81
2022/04/20 04:39:49;;;;;;;6.73;4.70;;;;;;;4.14;64.91;95223.25;4991025;28;20665;-81
2022/04/20 04:42:14;;;;;;;6.90;4.53;;;;;;;4.19;64.53;95220.34;4990791;28;20239;-81
2022/04/20 04:44:39;;;;;;;4.90;4.40;;;;;;;4.19;64.72;95213.44;4975366;28;20247;-80
2022/04/20 04:49:49;;;;;;;5.17;4.67;;;;;;;4.24;64.58;95215.66;4976780;28;20205;-80
2022/04/20 04:52:15;;;;;;;5.33;4.83;;;;;;;4.30;64.13;95225.47;4974594;28;20180;-79
2022/04/20 04:54:40;;;;;;;7.20;4.17;;;;;;;4.50;63.93;95226.50;4975264;28;20201;-79
2022/04/20 04:57:07;;;;;;;4.73;4.27;;;;;;;5.30;62.29;95224.47;4975222;28;20214;-80
2022/04/20 04:59:34;;;;;;;7.60;4.00;;;;;;;6.77;58.53;95228.50;5007574;28;20181;-81
2022/04/20 05:01:59;;;;;;;4.60;4.10;;;;;;;7.74;54.19;95232.94;5006681;28;20525;-80
2022/04/20 05:04:25;;;;;;;8.20;3.83;;;;;;;8.50;50.36;95221.63;5006955;28;20195;-80
2022/04/20 05:06:50;;;;;;;4.30;3.80;;;;;;;8.04;50.93;95229.34;4990813;28;20184;-80
2022/04/20 05:09:16;;;;;;;6.50;3.87;;;;;;;7.51;52.59;95230.66;4959056;28;20627;-81
2022/04/20 05:11:42;;;;;;;4.43;3.77;;;;;;;7.69;52.10;95225.63;5004198;28;20204;-79
2022/04/20 05:14:08;;;;;;;4.00;3.60;;;;;;;7.19;52.85;95230.09;4970140;28;20180;-80
2022/04/20 05:16:33;;;;;;;4.10;3.70;;;;;;;6.96;54.07;95232.91;4975089;28;20181;-80
2022/04/20 05:18:58;;;;;;;4.87;4.03;;;;;;;6.92;54.45;95230.72;4957723;28;20209;-80
2022/04/20 05:21:24;;;;;;;5.07;3.50;;;;;;;6.87;54.32;95231.13;4974360;28;20184;-79
2022/04/20 05:23:49;;;;;;;4.67;4.10;;;;;;;6.51;55.45;95228.16;4991155;28;20204;-80
2022/04/20 05:26:14;;;;;;;4.90;4.00;;;;;;;6.34;56.42;95223.63;5003927;28;20180;-80
2022/04/20 05:28:40;;;;;;;5.27;3.80;;;;;;;6.34;56.62;95231.34;5022155;28;20687;-79
2022/04/20 05:31:05;;;;;;;5.37;4.70;;;;;;;6.41;56.52;95239.41;4992327;28;20185;-78
2022/04/20 05:33:30;;;;;;;5.60;4.20;;;;;;;6.40;56.65;95235.19;4992432;28;20550;-80
2022/04/20 05:35:55;;;;;;;5.20;4.07;;;;;;;6.19;57.81;95232.66;4980337;28;20188;-80
2022/04/20 05:43:49;;;;;;;6.83;4.43;;;;;;;6.05;58.29;95235.56;4992607;28;20246;-81
2022/04/20 05:46:14;;;;;;;5.17;4.30;;;;;;;6.03;59.27;95235.69;4991387;28;20271;-80
2022/04/20 05:48:40;;;;;;;5.47;4.23;;;;;;;6.10;58.77;95226.50;4991280;28;20236;-77
2022/04/20 05:51:07;;;;;;;4.77;4.27;;;;;;;6.18;58.39;95231.00;4977162;28;20175;-77
2022/04/20 05:53:32;;;;;;;6.00;3.47;;;;;;;6.14;58.95;95233.03;4970901;28;20176;-80
2022/04/20 05:55:58;;;;;;;7.83;4.10;;;;;;;5.93;59.49;95233.06;4992137;28;20188;-81
2022/04/20 05:58:23;;;;;;;5.57;4.07;;;;;;;5.94;59.20;95237.28;4994160;28;20223;-80
2022/04/20 06:00:48;;;;;;;5.70;4.17;;;;;;;6.12;58.51;95232.34;4980190;28;20353;-79
2022/04/20 06:03:14;;;;;;;4.63;4.03;;;;;;;6.18;58.75;95233.59;5005612;28;20255;-80
2022/04/20 06:05:40;;;;;;;6.10;4.00;;;;;;;6.15;58.72;95229.50;4992943;28;20674;-81
2022/04/20 06:08:06;;;;;;;9.43;5.07;;;;;;;6.09;59.26;95236.94;4983663;28;20202;-80
2022/04/20 06:10:32;;;;;;;5.00;4.50;;;;;;;6.16;59.78;95243.22;4985127;28;20183;-79
2022/04/20 06:12:58;;;;;;;5.00;4.50;;;;;;;5.97;60.20;95239.59;4986303;28;20176;-79
2022/04/20 06:15:23;;;;;;;4.77;3.90;;;;;;;6.06;60.15;95238.00;4979054;28;20538;-79
2022/04/20 06:17:48;;;;;;;7.27;4.40;;;;;;;6.16;59.51;95235.47;4977704;28;20203;-80
2022/04/20 06:20:14;;;;;;;5.03;4.20;;;;;;;6.06;59.83;95237.19;4984478;28;20189;-82
2022/04/20 06:22:39;;;;;;;6.47;4.03;;;;;;;6.02;60.07;95233.25;4988641;28;20215;-81
2022/04/20 06:25:04;;;;;;;5.53;4.53;;;;;;;6.25;59.41;95224.41;4981027;28;20196;-80
2022/04/20 06:27:30;;;;;;;7.13;4.10;;;;;;;6.03;59.62;95235.69;4982143;28;20231;-81
2022/04/20 06:29:56;;;;;;;8.77;4.70;;;;;;;6.21;59.76;95241.91;4984747;28;20183;-80
2022/04/20 06:32:23;;;;;;;9.10;4.07;;;;;;;6.39;59.42;95241.28;4975059;28;20250;-79
2022/04/20 06:34:49;;;;;;;7.30;4.63;;;;;;;6.03;58.85;95232.31;5006103;28;20270;-80
2022/04/20 06:37:14;;;;;;;8.70;4.67;;;;;;;6.19;58.67;95237.81;5006257;28;20697;-81
2022/04/20 06:39:40;;;;;;;6.93;4.50;;;;;;;6.14;58.65;95242.53;4990143;28;20188;-78
2022/04/20 06:42:07;;;;;;;4.50;3.93;;;;;;;6.23;58.23;95234.03;4975574;28;20193;-80
2022/04/20 06:44:32;;;;;;;4.77;3.50;;;;;;;6.13;57.33;95238.31;4989215;28;20597;-81
2022/04/20 06:46:58;;;;;;;5.07;3.87;;;;;;;6.53;56.26;95234.00;4982675;28;20230;-82
2022/04/20 06:49:23;;;;;;;6.23;3.83;;;;;;;6.74;54.79;95238.28;4975637;28;20218;-80
2022/04/20 07:00:00;;;;;;;3.67;3.07;;;;;;;6.92;53.18;95230.72;4990387;28;20207;-80
2022/04/20 07:02:26;;;;;;;4.70;3.70;;;;;;;6.96;52.65;95227.75;4974713;28;20755;-81
2022/04/20 07:04:51;;;;;;;3.53;3.10;;;;;;;7.02;52.08;95237.53;5005895;28;20267;-80
2022/04/20 07:07:16;;;;;;;9.73;3.90;;;;;;;7.18;51.71;95226.69;4989223;28;20204;-79
2022/04/20 07:09:42;;;;;;;4.77;3.17;;;;;;;7.19;52.07;95230.91;5005301;28;20188;-80
2022/04/20 07:12:07;;;;;;;4.00;3.40;;;;;;;7.12;51.96;95241.91;4990869;28;20183;-80
2022/04/20 07:14:32;;;;;;;5.47;3.30;;;;;;;7.26;52.46;95236.34;4992191;28;20184;-80
2022/04/20 07:16:58;;;;;;;6.63;3.50;;;;;;;7.24;51.16;95227.91;4974867;28;20183;-81
2022/04/20 07:19:23;;;;;;;9.13;3.77;;;;;;;7.16;52.07;95233.78;4972611;28;20184;-81
2022/04/20 07:21:48;;;;;;;4.77;3.33;;;;;;;7.31;50.98;95241.91;4976007;28;20185;-81
2022/04/20 07:24:14;;;;;;;4.77;3.73;;;;;;;7.27;51.88;95230.25;4958652;28;20538;-79
2022/04/20 07:26:40;;;;;;;4.67;3.43;;;;;;;7.66;51.15;95238.78;4970383;28;20269;-83
2022/04/20 07:29:06;;;;;;;3.97;3.67;;;;;;;7.87;51.62;95228.31;4978471;28;20227;-81
2022/04/20 07:31:31;;;;;;;5.00;3.60;;;;;;;7.91;51.21;95229.66;4980024;28;20869;-79
2022/04/20 07:33:56;;;;;;;6.20;3.70;;;;;;;8.15;50.75;95226.63;4980957;28;20183;-80
2022/04/20 07:36:22;;;;;;;4.10;3.30;;;;;;;7.90;49.10;95228.03;4982245;28;20199;-80
2022/04/20 07:38:48;;;;;;;3.50;3.07;;;;;;;8.16;48.03;95230.81;4966757;28;20224;-82
2022/04/20 07:41:14;;;;;;;6.80;3.53;;;;;;;8.14;47.31;95230.97;4967211;28;20271;-79
2022/04/20 07:43:39;;;;;;;7.00;3.00;;;;;;;8.09;48.01;95235.72;4979741;28;20299;-80
2022/04/20 07:46:05;;;;;;;4.60;3.60;;;;;;;8.36;47.92;95236.78;4985134;28;20189;-81
2022/04/20 07:48:30;;;;;;;3.77;3.20;;;;;;;8.44;46.80;95237.69;4983297;28;20215;-79
2022/04/20 07:50:55;;;;;;;3.13;2.80;;;;;;;8.28;47.32;95240.03;4983268;28;20192;-80
2022/04/20 07:53:21;;;;;;;3.87;2.80;;;;;;;8.20;47.27;95239.91;4967275;28;20180;-79
2022/04/20 07:55:46;;;;;;;6.10;3.50;;;;;;;8.14;47.96;95245.69;4964957;28;20188;-80
2022/04/20 07:58:12;;;;;;;6.60;3.93;;;;;;;8.11;47.50;95246.75;4966065;28;20196;-80
2022/04/20 08:00:38;;;;;;;4.53;3.33;;;;;;;8.33;47.54;95245.63;4965260;28;20178;-79
2022/04/20 08:03:15;;;;;;;3.63;2.83;;;;;;;8.29;47.13;95248.63;4978961;28;20240;-80
2022/04/20 08:05:41;;;;;;;8.30;3.80;;;;;;;8.22;48.16;95244.03;4979922;28;20223;-79
2022/04/20 08:08:08;;;;;;;4.57;3.33;;;;;;;8.51;47.81;95249.13;4995861;28;20196;-82
2022/04/20 08:10:33;;;;;;;6.27;3.63;;;;;;;8.43;47.08;95253.38;4984951;28;20188;-80
2022/04/20 08:12:58;;;;;;;4.53;3.20;;;;;;;8.46;47.12;95243.53;4979506;28;20184;-80
2022/04/20 08:15:23;;;;;;;5.10;3.63;;;;;;;8.48;47.60;95246.00;4979260;28;20184;-80
2022/04/20 08:17:49;;;;;;;3.60;3.30;;;;;;;8.11;46.93;95245.94;4970828;28;20215;-81
2022/04/20 08:20:14;;;;;;;3.03;2.70;;;;;;;8.11;46.97;95254.50;4959479;28;20184;-82
2022/04/20 08:22:44;;;;;;;5.67;3.30;;;;;;;8.04;47.41;95242.28;4971204;28;20279;-79
2022/04/20 08:25:10;;;;;;;13.93;3.80;;;;;;;8.33;46.68;95252.56;5006404;28;20305;-80
2022/04/20 08:27:36;;;;;;;7.07;3.30;;;;;;;8.41;46.79;95253.53;4980415;28;20586;-80
2022/04/20 08:30:03;;;;;;;4.53;3.00;;;;;;;8.99;44.71;95245.47;4983112;28;20223;-80
2022/04/20 08:32:29;;;;;;;3.57;3.27;;;;;;;8.92;43.79;95248.78;4979892;28;20181;-80
2022/04/20 08:34:54;;;;;;;3.03;2.73;;;;;;;8.86;43.33;95246.78;4987703;28;20210;-80
2022/04/20 08:37:19;;;;;;;3.57;2.33;;;;;;;9.01;43.59;95245.31;4988327;28;20208;-79
2022/04/20 08:39:45;;;;;;;3.30;2.60;;;;;;;9.05;42.89;95251.88;4982261;28;20192;-80
2022/04/20 08:42:12;;;;;;;2.83;2.57;;;;;;;9.13;43.50;95262.31;4965034;28;20211;-81
2022/04/20 08:44:42;;;;;;;4.07;2.47;;;;;;;9.29;42.43;95257.31;4978742;28;20267;-80
2022/04/20 08:47:12;;;;;;;4.93;2.70;;;;;;;8.93;40.79;95253.84;4989340;28;20200;-81
2022/04/20 08:49:42;;;;;;;3.53;2.63;;;;;;;8.82;41.52;95251.44;4963088;28;20191;-80
2022/04/20 08:54:54;;;;;;;3.20;2.50;;;;;;;8.67;40.69;95248.53;4978803;28;20534;-80
2022/04/20 08:57:22;;;;;;;5.50;2.90;;;;;;;8.83;42.28;95249.66;4973912;28;20203;-80
2022/04/20 08:59:48;;;;;;;5.60;3.70;;;;;;;9.09;42.18;95258.38;4960737;28;20195;-81
2022/04/20 09:02:15;;;;;;;5.40;2.80;;;;;;;9.32;42.53;95253.59;4984789;28;20211;-80
2022/04/20 09:04:41;;;;;;;5.43;3.67;;;;;;;9.67;41.02;95252.78;4973900;28;20228;-81
2022/04/20 09:07:07;;;;;;;3.00;2.70;;;;;;;9.70;41.93;95259.44;4991018;28;20208;-80
2022/04/20 09:09:33;;;;;;;4.53;3.23;;;;;;;9.89;42.45;95238.53;4993163;28;20255;-79
2022/04/20 09:11:59;;;;;;;3.97;3.33;;;;;;;9.96;42.03;95252.53;4991985;28;20184;-80
2022/04/20 09:14:25;;;;;;;5.33;3.53;;;;;;;9.43;42.74;95253.38;4976484;28;20184;-81
2022/04/20 09:16:55;;;;;;;5.40;3.20;;;;;;;9.46;42.43;95247.09;4970767;28;20246;-81
2022/04/20 09:19:24;;;;;;;3.73;3.00;;;;;;;9.36;42.54;95248.00;4972846;28;20246;-80
2022/04/20 09:21:49;;;;;;;4.50;3.13;;;;;;;9.75;41.48;95247.69;4990390;28;20212;-82
2022/04/20 09:24:14;;;;;;;3.83;3.20;;;;;;;9.99;42.61;95246.25;5011968;28;20206;-81
2022/04/20 09:26:56;;;;;;;5.07;3.40;;;;;;;10.00;42.18;95253.06;5001067;28;20183;-81
2022/04/20 09:29:22;;;;;;;11.83;4.50;;;;;;;9.96;43.94;95249.94;4963221;28;20192;-80
2022/04/20 09:31:53;;;;;;;5.80;4.10;;;;;;;9.73;44.08;95241.84;4967808;28;20537;-80
2022/04/20 09:34:36;;;;;;;9.97;5.33;;;;;;;10.09;44.48;95239.19;4969954;28;20645;-81
2022/04/20 09:37:11;;;;;;;4.43;3.67;;;;;;;10.32;43.23;95245.50;4986118;28;20668;-81
2022/04/20 09:39:38;;;;;;;4.10;3.70;;;;;;;10.67;42.24;95238.56;4972576;28;20196;-80
2022/04/20 09:42:05;;;;;;;5.97;3.83;;;;;;;10.58;42.64;95260.25;4984884;28;20216;-80
2022/04/20 09:44:30;;;;;;;5.13;3.57;;;;;;;10.34;42.28;95246.19;4985702;28;20249;-81
2022/04/20 09:50:01;;;;;;;5.43;3.90;;;;;;;10.67;43.57;95246.34;4983953;28;20204;-81
2022/04/20 09:52:43;;;;;;;5.23;3.57;;;;;;;10.73;41.32;95243.94;4998965;28;20599;-82
2022/04/20 09:55:14;;;;;;;3.90;3.50;;;;;;;10.25;39.64;95247.09;4985733;28;20656;-81
2022/04/20 09:57:40;;;;;;;6.23;3.80;;;;;;;10.53;41.71;95245.16;4980687;28;20211;-81
2022/04/20 10:00:15;;;;;;;3.67;3.20;;;;;;;10.81;39.45;95240.56;4978103;28;20270;-80
2022/04/20 10:02:51;;;;;;;4.37;3.30;;;;;;;10.75;38.71;95236.81;4989585;28;20218;-81
2022/04/20 10:05:18;;;;;;;5.93;3.50;;;;;;;10.71;38.03;95243.28;4958774;28;20180;-81
2022/04/20 10:07:43;;;;;;;4.63;3.00;;;;;;;10.62;39.76;95238.22;5006428;28;20226;-81
2022/04/20 10:10:10;;;;;;;4.33;3.30;;;;;;;10.67;38.74;95238.56;5006739;28;20800;-81
2022/04/20 10:12:40;;;;;;;3.63;2.97;;;;;;;10.83;37.93;95232.63;4971268;28;20728;-79
2022/04/20 10:17:54;;;;;;;5.30;3.53;;;;;;;10.38;39.29;95239.72;4973174;28;20211;-83
2022/04/20 10:20:20;;;;;;;5.70;3.10;;;;;;;10.66;40.05;95234.34;4973989;28;20192;-81
2022/04/20 10:22:46;;;;;;;4.50;3.50;;;;;;;10.74;41.35;95234.38;4987934;28;20266;-80
2022/04/20 10:25:12;;;;;;;3.83;3.43;;;;;;;10.68;39.59;95220.22;4978804;28;20177;-80
2022/04/20 10:28:03;;;;;;;4.37;3.97;;;;;;;10.45;39.96;95230.34;4986602;28;20311;-79
2022/04/20 10:30:53;;;;;;;4.27;3.60;;;;;;;10.74;41.13;95219.59;4990415;28;20191;-81
2022/04/20 10:33:19;;;;;;;5.53;3.57;;;;;;;11.00;38.66;95222.13;4968958;28;20192;-82
2022/04/20 10:35:55;;;;;;;4.83;4.00;;;;;;;10.71;39.23;95226.91;4982343;28;20191;-82
2022/04/20 10:38:21;;;;;;;4.07;3.67;;;;;;;10.74;39.36;95214.41;4991743;28;20222;-81
2022/04/20 10:41:06;;;;;;;4.43;3.60;;;;;;;11.04;38.84;95212.22;4978792;28;20183;-79
2022/04/20 10:43:34;;;;;;;3.77;3.40;;;;;;;11.14;38.07;95209.50;4984762;28;20216;-81
2022/04/20 10:46:17;;;;;;;5.47;3.60;;;;;;;11.10;38.16;95200.38;4972656;28;20242;-81
2022/04/20 10:49:14;;;;;;;5.43;3.73;;;;;;;10.93;39.39;95209.91;4964981;28;20211;-81
2022/04/20 10:51:42;;;;;;;5.63;3.63;;;;;;;11.00;37.98;95205.72;4979704;28;20223;-82
2022/04/20 10:54:34;;;;;;;4.53;3.20;;;;;;;11.13;39.57;95203.50;4987349;28;20720;-82
2022/04/20 10:56:59;;;;;;;4.87;3.20;;;;;;;11.26;37.98;95203.03;4983833;28;20672;-79
2022/04/20 10:59:24;;;;;;;3.87;3.40;;;;;;;11.44;37.75;95193.28;5005669;28;20339;-82
2022/04/20 11:02:11;;;;;;;4.00;3.50;;;;;;;11.52;36.61;95197.69;4987842;28;20195;-82
2022/04/20 11:04:50;;;;;;;5.80;3.03;;;;;;;11.56;36.38;95194.59;5006142;28;20179;-82
2022/04/20 11:07:30;;;;;;;6.60;3.03;;;;;;;11.62;37.12;95188.75;5003828;28;20200;-79
2022/04/20 11:09:57;;;;;;;4.27;3.23;;;;;;;11.75;36.64;95185.69;4984884;28;20188;-81
2022/04/20 11:18:39;;;;;;;5.57;3.37;;;;;;;11.74;36.07;95172.81;4989816;28;20338;-81
2022/04/20 11:21:04;;;;;;;5.70;3.40;;;;;;;11.85;36.95;95177.72;4980390;28;20179;-80
2022/04/20 11:23:55;;;;;;;6.70;3.53;;;;;;;12.01;36.47;95180.28;5006126;28;20671;-80
2022/04/20 11:26:24;;;;;;;3.70;3.10;;;;;;;11.90;36.87;95183.25;4991600;28;20189;-82
2022/04/20 11:28:50;;;;;;;5.33;3.30;;;;;;;11.95;36.80;95183.56;4985434;28;20208;-80
2022/04/20 11:31:16;;;;;;;4.87;3.23;;;;;;;12.16;36.17;95183.03;4983529;28;20189;-80
2022/04/20 11:33:41;;;;;;;6.10;3.10;;;;;;;12.20;35.72;95171.34;4968917;28;20207;-82
2022/04/20 11:36:13;;;;;;;5.83;3.40;;;;;;;11.98;35.00;95164.19;4988217;28;20180;-81
2022/04/20 11:38:41;;;;;;;4.83;2.90;;;;;;;12.07;34.05;95179.63;4987973;28;20617;-81
2022/04/20 11:41:13;;;;;;;4.50;3.30;;;;;;;11.68;34.91;95176.91;4988477;28;20196;-81
2022/04/20 11:43:39;;;;;;;3.13;2.80;;;;;;;12.23;35.79;95170.97;4987992;28;20263;-81
2022/04/20 11:46:10;;;;;;;3.33;3.00;;;;;;;12.52;35.47;95166.97;4987738;28;20199;-80
2022/04/20 11:48:36;;;;;;;5.03;2.90;;;;;;;12.42;35.25;95167.19;4986647;28;20219;-80
2022/04/20 11:51:03;;;;;;;6.47;3.47;;;;;;;12.32;34.93;95162.16;4987306;28;20590;-81
2022/04/20 11:53:40;;;;;;;3.67;2.93;;;;;;;12.69;34.66;95166.75;4955638;28;20176;-80
2022/04/20 11:56:12;;;;;;;3.40;3.10;;;;;;;12.08;34.68;95170.84;4959278;28;20271;-82
2022/04/20 11:58:38;;;;;;;4.60;3.10;;;;;;;12.09;34.75;95162.06;4987030;28;20208;-81
2022/04/20 12:01:05;;;;;;;4.27;3.30;;;;;;;12.54;34.13;95167.63;5004051;28;20633;-82
2022/04/20 12:03:31;;;;;;;3.53;2.53;;;;;;;12.71;34.34;95143.94;4987593;28;20589;-81
2022/04/20 12:06:01;;;;;;;3.73;2.70;;;;;;;12.79;34.08;95165.72;4987486;28;20188;-81
2022/04/20 12:08:26;;;;;;;2.97;2.70;;;;;;;12.56;34.87;95158.69;4987555;28;20208;-81
2022/04/20 12:10:52;;;;;;;3.23;2.93;;;;;;;13.00;33.25;95158.16;4974802;28;20243;-82